Time;durP1;ratioP1;P1;durP2;ratioP2;P2;SDS_P1;SDS_P2;PMS_P1;PMS_P2;Temp;Humidity;BMP_temperature;BMP_pressure;BME280_temperature;BME280_humidity;BME280_pressure;Samples;Min_cycle;Max_cycle;Signal;HPM_P1;HPM_P2
2023/03/08 00:02:52;;;;;;;2.97;2.60;;;22.40;65.70;;;;;;6014071;29;89045;-72
2023/03/08 00:05:55;;;;;;;2.90;2.70;;;22.40;65.70;;;;;;6013488;29;89301;-72
2023/03/08 00:08:58;;;;;;;2.90;2.70;;;22.40;65.70;;;;;;6012276;29;90035;-72
2023/03/08 00:12:00;;;;;;;2.80;2.60;;;22.30;65.70;;;;;;6011760;29;88061;-73
2023/03/08 00:15:03;;;;;;;3.10;2.80;;;22.30;65.70;;;;;;6005043;29;88518;-72
2023/03/08 00:18:05;;;;;;;3.00;2.70;;;22.30;65.70;;;;;;6002989;29;88261;-73
2023/03/08 00:21:11;;;;;;;2.92;2.72;;;22.30;65.70;;;;;;6011957;29;88105;-73
2023/03/08 00:24:15;;;;;;;3.28;2.65;;;22.30;65.70;;;;;;6012583;29;89407;-73
2023/03/08 00:27:18;;;;;;;2.97;2.70;;;22.30;65.70;;;;;;6013990;29;89125;-72
2023/03/08 00:30:20;;;;;;;2.80;2.60;;;22.30;65.70;;;;;;6014685;29;87257;-73
2023/03/08 00:33:22;;;;;;;3.03;2.72;;;22.30;65.70;;;;;;6012981;29;89118;-73
2023/03/08 00:36:25;;;;;;;2.92;2.63;;;22.30;65.60;;;;;;6012956;29;89467;-71
2023/03/08 00:39:27;;;;;;;2.70;2.50;;;22.30;65.70;;;;;;6013140;29;90033;-72
2023/03/08 00:42:29;;;;;;;2.60;2.40;;;22.30;65.70;;;;;;6012369;29;89160;-72
2023/03/08 00:45:31;;;;;;;2.70;2.50;;;22.30;65.70;;;;;;6006941;29;89731;-73
2023/03/08 00:48:33;;;;;;;2.75;2.55;;;22.20;65.70;;;;;;6006897;29;89263;-73
2023/03/08 00:51:37;;;;;;;3.13;2.83;;;22.20;65.70;;;;;;6012837;29;89076;-72
2023/03/08 00:54:39;;;;;;;3.38;2.60;;;22.20;65.70;;;;;;6004922;29;89012;-72
2023/03/08 00:57:42;;;;;;;3.00;2.70;;;22.20;65.80;;;;;;6000490;29;89175;-71
2023/03/08 01:00:44;;;;;;;3.00;2.70;;;22.20;65.70;;;;;;6010281;29;88434;-72
2023/03/08 01:03:46;;;;;;;2.50;2.30;;;22.20;65.70;;;;;;6009749;29;89136;-72
2023/03/08 01:06:50;;;;;;;2.35;2.15;;;22.20;65.80;;;;;;6006114;29;89065;-73
2023/03/08 01:09:55;;;;;;;2.55;2.30;;;22.20;65.70;;;;;;6005247;29;90143;-71
2023/03/08 01:12:57;;;;;;;2.50;2.30;;;22.20;65.70;;;;;;6010536;29;89015;-71
2023/03/08 01:16:00;;;;;;;2.70;2.50;;;22.20;65.70;;;;;;6007389;29;89114;-72
2023/03/08 01:19:02;;;;;;;2.60;2.40;;;22.20;65.70;;;;;;6010505;29;89192;-73
2023/03/08 01:22:06;;;;;;;2.80;2.60;;;22.20;65.70;;;;;;6010642;29;87939;-73
2023/03/08 01:25:09;;;;;;;2.97;2.63;;;22.20;65.70;;;;;;6013996;29;89489;-73
2023/03/08 01:28:11;;;;;;;2.80;2.22;;;22.20;65.70;;;;;;6012319;29;89948;-72
2023/03/08 01:31:15;;;;;;;2.88;2.45;;;22.20;65.80;;;;;;6004472;29;88376;-72
2023/03/08 01:34:17;;;;;;;2.67;2.47;;;22.20;65.70;;;;;;6005957;29;89309;-73
2023/03/08 01:37:20;;;;;;;2.58;2.38;;;22.10;65.70;;;;;;6006875;29;89125;-72
2023/03/08 01:40:23;;;;;;;3.63;2.28;;;22.10;65.70;;;;;;6004982;29;90338;-72
2023/03/08 01:43:26;;;;;;;2.50;2.30;;;22.10;65.70;;;;;;6008987;29;89175;-71
2023/03/08 01:46:29;;;;;;;2.92;2.60;;;22.10;65.70;;;;;;6012084;29;89063;-72
2023/03/08 01:49:35;;;;;;;2.50;2.30;;;22.10;65.60;;;;;;6008775;29;89301;-72
2023/03/08 01:52:42;;;;;;;2.58;2.38;;;22.10;65.60;;;;;;6012067;29;89404;-72
2023/03/08 01:55:44;;;;;;;2.50;2.30;;;22.20;65.70;;;;;;6007954;29;88954;-72
2023/03/08 01:58:50;;;;;;;2.70;2.50;;;22.10;65.60;;;;;;6012572;29;88994;-73
2023/03/08 02:01:55;;;;;;;2.90;2.60;;;22.10;65.70;;;;;;6006213;29;88676;-72
2023/03/08 02:04:57;;;;;;;2.45;2.25;;;22.10;65.70;;;;;;6004622;29;88022;-72
2023/03/08 02:08:01;;;;;;;2.72;2.53;;;22.10;65.70;;;;;;6008087;29;88149;-72
2023/03/08 02:11:03;;;;;;;2.53;2.33;;;22.10;65.70;;;;;;6017643;29;90102;-72
2023/03/08 02:14:05;;;;;;;2.53;2.33;;;22.10;65.70;;;;;;6016439;29;89010;-72
2023/03/08 02:17:07;;;;;;;2.85;2.65;;;22.10;65.80;;;;;;6016274;29;89080;-72
2023/03/08 02:20:14;;;;;;;2.42;2.22;;;22.10;65.80;;;;;;6008843;29;89121;-72
2023/03/08 02:23:20;;;;;;;2.47;2.28;;;22.10;65.70;;;;;;6009085;29;89070;-72
2023/03/08 02:26:23;;;;;;;2.40;2.20;;;22.10;65.70;;;;;;6010090;29;89243;-72
2023/03/08 02:29:25;;;;;;;2.50;2.30;;;22.10;65.70;;;;;;6014338;29;89170;-71
2023/03/08 02:32:27;;;;;;;2.65;2.40;;;22.10;65.60;;;;;;6015719;29;88384;-72
2023/03/08 02:35:29;;;;;;;2.65;2.45;;;22.10;65.70;;;;;;6012273;29;88005;-72
2023/03/08 02:38:33;;;;;;;3.70;3.20;;;22.00;65.70;;;;;;6015898;29;89451;-72
2023/03/08 02:41:35;;;;;;;3.33;3.00;;;22.00;65.70;;;;;;6015119;29;89869;-72
2023/03/08 02:44:37;;;;;;;3.42;2.90;;;22.00;65.70;;;;;;6009784;29;89263;-72
2023/03/08 02:47:39;;;;;;;3.17;2.88;;;22.00;65.70;;;;;;6004194;29;89083;-72
2023/03/08 02:50:41;;;;;;;3.53;3.22;;;22.00;65.70;;;;;;6005382;29;89173;-72
2023/03/08 02:53:44;;;;;;;3.67;3.38;;;22.00;65.70;;;;;;6016663;29;87998;-72
2023/03/08 02:56:46;;;;;;;3.33;3.03;;;22.00;65.70;;;;;;6002317;29;89346;-72
2023/03/08 02:59:48;;;;;;;3.67;3.38;;;22.00;65.70;;;;;;6008232;29;88083;-72
2023/03/08 03:02:50;;;;;;;4.53;4.10;;;22.00;65.70;;;;;;5999437;29;88370;-71
2023/03/08 03:05:52;;;;;;;4.43;3.95;;;22.00;65.60;;;;;;5998620;29;87781;-73
2023/03/08 03:08:56;;;;;;;4.47;4.07;;;22.00;65.70;;;;;;6006181;29;89458;-73
2023/03/08 03:11:58;;;;;;;4.53;4.13;;;22.00;65.60;;;;;;6013469;29;88936;-72
2023/03/08 03:15:02;;;;;;;4.72;4.32;;;22.00;65.60;;;;;;6011161;29;88860;-72
2023/03/08 03:18:04;;;;;;;4.90;4.40;;;22.00;65.70;;;;;;5997520;29;89286;-73
2023/03/08 03:21:08;;;;;;;4.35;3.95;;;22.00;65.70;;;;;;6011156;29;89063;-73
2023/03/08 03:24:13;;;;;;;5.00;4.50;;;22.00;65.70;;;;;;6004011;29;89373;-73
2023/03/08 03:27:15;;;;;;;5.18;4.72;;;22.00;65.80;;;;;;6009872;29;89069;-72
2023/03/08 03:30:17;;;;;;;5.25;4.75;;;21.90;65.70;;;;;;6007761;29;89033;-72
2023/03/08 03:33:19;;;;;;;5.40;4.90;;;21.90;65.70;;;;;;6015840;29;88418;-72
2023/03/08 03:36:22;;;;;;;5.75;5.10;;;21.90;65.70;;;;;;6003083;29;89089;-72
2023/03/08 03:39:29;;;;;;;5.97;5.38;;;21.90;65.60;;;;;;6013312;29;88905;-72
2023/03/08 03:42:31;;;;;;;6.03;5.43;;;21.90;65.60;;;;;;6010218;29;89913;-73
2023/03/08 03:45:33;;;;;;;5.75;5.25;;;22.00;65.70;;;;;;6008224;29;89215;-72
2023/03/08 03:48:36;;;;;;;5.57;5.07;;;21.90;65.60;;;;;;6014303;29;89085;-73
2023/03/08 03:51:38;;;;;;;6.20;5.60;;;21.90;65.70;;;;;;6005478;29;89383;-73
2023/03/08 03:54:41;;;;;;;6.25;5.65;;;21.90;65.70;;;;;;6012224;29;89029;-72
2023/03/08 03:57:43;;;;;;;6.32;5.72;;;21.90;65.70;;;;;;6008791;29;89296;-73
2023/03/08 04:00:46;;;;;;;6.32;5.72;;;21.90;65.70;;;;;;6015100;29;89087;-72
2023/03/08 04:03:48;;;;;;;6.30;5.70;;;21.90;65.70;;;;;;6009188;29;88396;-72
2023/03/08 04:06:50;;;;;;;6.15;5.55;;;21.90;65.70;;;;;;6008310;29;89155;-73
2023/03/08 04:09:54;;;;;;;6.90;6.20;;;21.80;65.70;;;;;;6006921;29;89081;-73
2023/03/08 04:12:56;;;;;;;6.55;5.95;;;21.90;65.70;;;;;;6005246;29;90032;-73
2023/03/08 04:15:58;;;;;;;6.70;6.10;;;21.90;65.70;;;;;;6008032;29;89117;-71
2023/03/08 04:19:02;;;;;;;6.22;5.57;;;21.90;65.60;;;;;;6011764;29;87977;-71
2023/03/08 04:22:04;;;;;;;7.18;6.45;;;21.90;65.60;;;;;;6010239;29;89278;-72
2023/03/08 04:25:09;;;;;;;6.47;5.88;;;21.90;65.60;;;;;;6002043;29;88931;-71
2023/03/08 04:28:11;;;;;;;6.63;6.03;;;21.90;65.60;;;;;;6008733;29;89167;-72
2023/03/08 04:31:14;;;;;;;6.80;6.20;;;21.90;65.70;;;;;;6003789;29;90657;-72
2023/03/08 04:34:16;;;;;;;6.90;6.30;;;21.80;65.50;;;;;;6012495;29;88688;-72
2023/03/08 04:37:19;;;;;;;6.65;6.05;;;21.90;65.50;;;;;;6013967;29;89260;-72
2023/03/08 04:40:22;;;;;;;6.95;6.35;;;21.90;65.50;;;;;;6012782;29;88424;-72
2023/03/08 04:43:24;;;;;;;6.97;6.28;;;21.80;65.50;;;;;;6001756;29;91446;-71
2023/03/08 04:46:28;;;;;;;6.95;6.25;;;21.80;65.50;;;;;;6012532;29;89080;-72
2023/03/08 04:49:30;;;;;;;7.53;6.82;;;21.80;65.50;;;;;;6004192;29;88016;-73
2023/03/08 04:52:32;;;;;;;6.85;6.25;;;21.80;65.50;;;;;;6009968;29;89396;-72
2023/03/08 04:55:36;;;;;;;6.88;6.28;;;21.80;65.40;;;;;;6014061;29;87932;-73
2023/03/08 04:58:39;;;;;;;6.80;6.18;;;21.80;65.40;;;;;;6002730;29;89541;-73
2023/03/08 05:01:42;;;;;;;6.07;5.57;;;21.80;65.40;;;;;;6005862;29;89150;-72
2023/03/08 05:04:44;;;;;;;7.05;6.38;;;21.90;65.40;;;;;;6008474;29;88724;-73
2023/03/08 05:07:46;;;;;;;6.80;6.13;;;21.90;65.40;;;;;;6012976;29;89026;-73
2023/03/08 05:10:56;;;;;;;7.05;6.35;;;21.90;65.30;;;;;;6012671;29;89162;-73
2023/03/08 05:13:59;;;;;;;7.00;6.30;;;21.90;65.30;;;;;;6007578;29;90016;-72
2023/03/08 05:17:01;;;;;;;6.95;6.25;;;21.90;65.20;;;;;;6012566;29;89305;-72
2023/03/08 05:20:04;;;;;;;6.63;6.03;;;21.90;65.20;;;;;;6013168;29;90490;-73
2023/03/08 05:23:06;;;;;;;7.00;6.40;;;22.00;65.30;;;;;;6003001;29;89107;-73
2023/03/08 05:26:12;;;;;;;6.78;6.10;;;22.00;65.20;;;;;;6006380;29;89030;-73
2023/03/08 05:29:14;;;;;;;6.97;6.30;;;22.00;65.20;;;;;;6008504;29;89111;-72
2023/03/08 05:32:16;;;;;;;6.20;5.70;;;22.00;65.20;;;;;;6002814;29;89139;-72
2023/03/08 05:35:18;;;;;;;6.18;5.57;;;22.00;65.20;;;;;;6012157;29;88432;-72
2023/03/08 05:38:20;;;;;;;6.78;6.00;;;22.00;65.20;;;;;;6011438;29;89197;-72
2023/03/08 05:41:24;;;;;;;6.35;5.75;;;22.00;65.20;;;;;;6013441;29;89301;-72
2023/03/08 05:44:26;;;;;;;6.40;5.80;;;22.00;65.20;;;;;;6013570;29;89966;-72
2023/03/08 05:47:29;;;;;;;6.43;5.82;;;22.00;65.20;;;;;;6013077;29;87991;-73
2023/03/08 05:50:31;;;;;;;6.68;6.07;;;22.00;65.20;;;;;;6013250;29;88982;-72
2023/03/08 05:53:33;;;;;;;6.40;5.80;;;22.00;65.20;;;;;;6012044;29;89194;-72
2023/03/08 05:56:37;;;;;;;6.50;5.90;;;22.00;65.20;;;;;;6007947;29;88019;-71
2023/03/08 05:59:39;;;;;;;6.35;5.75;;;22.00;65.20;;;;;;6000485;29;89060;-73
2023/03/08 06:02:41;;;;;;;6.30;5.70;;;22.00;65.20;;;;;;6009143;29;89235;-73
2023/03/08 06:05:43;;;;;;;6.65;5.97;;;22.10;65.20;;;;;;6008558;29;88401;-72
2023/03/08 06:08:45;;;;;;;6.43;5.80;;;22.10;65.20;;;;;;6002771;29;89098;-72
2023/03/08 06:11:49;;;;;;;6.28;5.68;;;22.10;65.20;;;;;;5997066;29;89323;-71
2023/03/08 06:14:51;;;;;;;6.43;5.82;;;22.10;65.20;;;;;;5998510;29;90208;-72
2023/03/08 06:17:53;;;;;;;6.35;5.75;;;22.10;65.10;;;;;;6006762;29;89504;-72
2023/03/08 06:20:57;;;;;;;5.93;5.38;;;22.10;65.10;;;;;;6001859;29;89146;-72
2023/03/08 06:24:02;;;;;;;5.68;5.18;;;22.10;65.00;;;;;;6008160;29;88013;-72
2023/03/08 06:27:06;;;;;;;5.72;5.22;;;22.10;65.00;;;;;;6009035;29;88912;-72
2023/03/08 06:30:09;;;;;;;5.93;5.38;;;22.20;65.00;;;;;;6012554;29;89105;-72
2023/03/08 06:33:11;;;;;;;6.07;5.47;;;22.20;65.00;;;;;;6005024;29;89078;-73
2023/03/08 06:36:15;;;;;;;5.97;5.40;;;22.20;65.00;;;;;;6000560;29;88442;-72
2023/03/08 06:39:17;;;;;;;6.20;5.60;;;22.20;65.00;;;;;;6011193;29;88017;-72
2023/03/08 06:42:20;;;;;;;6.00;5.45;;;22.20;65.00;;;;;;6014880;29;89389;-72
2023/03/08 06:45:22;;;;;;;5.80;5.22;;;22.20;65.00;;;;;;6016173;29;90041;-73
2023/03/08 06:48:25;;;;;;;6.00;5.50;;;22.20;65.00;;;;;;6005752;29;89102;-73
2023/03/08 06:51:27;;;;;;;6.13;5.55;;;22.20;65.00;;;;;;6011764;29;89439;-73
2023/03/08 06:54:29;;;;;;;5.35;4.85;;;22.20;65.10;;;;;;6014932;29;89002;-72
2023/03/08 06:57:32;;;;;;;5.50;5.00;;;22.20;65.10;;;;;;6013118;29;89135;-72
2023/03/08 07:00:35;;;;;;;5.38;4.88;;;22.20;65.10;;;;;;6004546;29;89191;-72
2023/03/08 07:03:38;;;;;;;5.57;5.07;;;22.20;65.20;;;;;;6010265;29;88775;-72
2023/03/08 07:06:40;;;;;;;5.57;5.07;;;22.20;65.20;;;;;;6014127;29;88733;-73
2023/03/08 07:09:42;;;;;;;5.40;4.90;;;22.20;65.20;;;;;;6016324;29;89066;-72
2023/03/08 07:12:47;;;;;;;5.95;5.30;;;22.20;65.30;;;;;;6002936;29;89153;-73
2023/03/08 07:15:49;;;;;;;5.55;5.03;;;22.20;65.30;;;;;;6005018;29;89441;-72
2023/03/08 07:18:51;;;;;;;5.15;4.65;;;22.20;65.30;;;;;;6005684;29;89321;-72
2023/03/08 07:21:54;;;;;;;4.95;4.55;;;22.20;65.30;;;;;;5997676;29;89195;-73
2023/03/08 07:24:56;;;;;;;5.32;4.82;;;22.20;65.30;;;;;;5999250;29;89114;-71
2023/03/08 07:28:00;;;;;;;4.93;4.47;;;22.20;65.20;;;;;;6008824;29;89292;-72
2023/03/08 07:31:02;;;;;;;5.15;4.65;;;22.20;65.30;;;;;;6001501;29;89212;-73
2023/03/08 07:34:05;;;;;;;4.90;4.50;;;22.20;65.30;;;;;;6003368;29;89143;-72
2023/03/08 07:37:12;;;;;;;5.10;4.65;;;22.20;65.40;;;;;;5998564;29;88352;-72
2023/03/08 07:40:15;;;;;;;5.38;4.88;;;22.30;65.40;;;;;;6010140;29;90201;-72
2023/03/08 07:43:19;;;;;;;4.88;4.45;;;22.20;65.40;;;;;;6015536;29;89149;-72
2023/03/08 07:46:21;;;;;;;5.10;4.60;;;22.30;65.40;;;;;;6013604;29;88909;-71
2023/03/08 07:49:23;;;;;;;4.97;4.57;;;22.30;65.40;;;;;;6006830;29;89202;-72
2023/03/08 07:52:27;;;;;;;4.70;4.30;;;22.30;65.40;;;;;;6010263;29;89259;-72
2023/03/08 07:55:29;;;;;;;4.80;4.35;;;22.30;65.40;;;;;;6013147;29;89032;-72
2023/03/08 07:58:33;;;;;;;4.50;4.10;;;22.30;65.40;;;;;;6015121;29;90061;-73
2023/03/08 08:01:35;;;;;;;4.68;4.28;;;22.30;65.40;;;;;;6003497;29;89326;-71
2023/03/08 08:04:37;;;;;;;4.50;4.10;;;22.40;66.40;;;;;;6013499;29;89193;-72
2023/03/08 08:07:39;;;;;;;4.97;4.47;;;22.30;65.40;;;;;;6015132;29;88328;-72
2023/03/08 08:10:42;;;;;;;4.88;4.38;;;22.40;65.40;;;;;;6015418;29;89114;-72
2023/03/08 08:13:46;;;;;;;4.90;4.45;;;22.30;65.40;;;;;;6015005;29;89392;-71
2023/03/08 08:16:48;;;;;;;5.00;4.50;;;22.30;65.30;;;;;;6013203;29;90090;-72
2023/03/08 08:19:51;;;;;;;4.53;4.13;;;22.30;65.40;;;;;;6013322;29;87885;-73
2023/03/08 08:22:53;;;;;;;4.70;4.30;;;22.40;65.40;;;;;;6014571;29;88021;-72
2023/03/08 08:25:55;;;;;;;4.50;4.10;;;22.30;65.30;;;;;;6014793;29;89230;-73
2023/03/08 08:28:59;;;;;;;4.47;4.07;;;22.40;65.40;;;;;;6013146;29;89313;-71
2023/03/08 08:32:02;;;;;;;4.60;4.20;;;22.40;65.40;;;;;;6002937;29;89170;-73
2023/03/08 08:35:05;;;;;;;4.68;4.28;;;22.40;65.30;;;;;;6014385;29;87955;-73
2023/03/08 08:38:07;;;;;;;6.38;5.00;;;22.40;65.40;;;;;;6001147;29;88603;-72
2023/03/08 08:41:10;;;;;;;4.78;4.38;;;22.40;65.40;;;;;;6014178;29;89463;-74
2023/03/08 08:44:13;;;;;;;3.97;3.67;;;22.40;65.40;;;;;;6004010;29;89092;-71
2023/03/08 08:47:15;;;;;;;4.35;3.95;;;22.40;65.40;;;;;;5993407;29;90411;-72
2023/03/08 08:50:18;;;;;;;4.35;3.95;;;22.40;65.40;;;;;;6002235;29;89373;-73
2023/03/08 08:53:20;;;;;;;4.25;3.85;;;22.40;65.40;;;;;;6012207;29;89236;-71
2023/03/08 08:56:25;;;;;;;4.35;3.95;;;22.40;65.40;;;;;;6011651;29;89128;-72
2023/03/08 08:59:28;;;;;;;4.60;4.20;;;22.50;65.40;;;;;;6014688;29;87976;-73
2023/03/08 09:02:30;;;;;;;5.03;4.53;;;22.40;65.40;;;;;;6010473;29;89114;-72
2023/03/08 09:05:34;;;;;;;4.70;4.30;;;22.40;65.40;;;;;;6003889;29;89450;-73
2023/03/08 09:08:36;;;;;;;4.07;3.67;;;22.40;65.40;;;;;;6015657;29;88474;-72
2023/03/08 09:11:38;;;;;;;4.45;4.05;;;22.40;65.30;;;;;;6013513;29;88015;-72
2023/03/08 09:14:41;;;;;;;4.50;4.10;;;22.50;65.50;;;;;;6003547;29;89044;-72
2023/03/08 09:17:44;;;;;;;4.40;4.00;;;22.40;65.40;;;;;;5997648;29;90050;-72
2023/03/08 09:20:46;;;;;;;4.63;4.22;;;22.40;65.40;;;;;;6006804;29;89359;-72
2023/03/08 09:23:48;;;;;;;4.50;4.10;;;22.40;65.40;;;;;;6008105;29;89144;-72
2023/03/08 09:26:50;;;;;;;5.07;4.57;;;22.40;65.40;;;;;;6013514;29;89026;-73
2023/03/08 09:29:53;;;;;;;4.53;4.13;;;22.50;65.40;;;;;;6008496;29;89075;-72
2023/03/08 09:32:55;;;;;;;5.20;4.70;;;22.50;65.40;;;;;;6001155;29;89114;-73
2023/03/08 09:35:58;;;;;;;5.40;4.90;;;22.40;65.40;;;;;;6010946;29;89202;-72
2023/03/08 09:39:00;;;;;;;5.88;5.28;;;22.50;65.40;;;;;;6005384;29;89116;-72
2023/03/08 09:42:05;;;;;;;6.35;5.75;;;22.50;65.40;;;;;;6009625;29;89080;-72
2023/03/08 09:45:18;;;;;;;7.45;6.75;;;22.50;65.40;;;;;;6012443;29;89097;-72
2023/03/08 09:48:26;;;;;;;9.15;8.25;;;22.50;65.40;;;;;;6001170;29;90323;-72
2023/03/08 09:51:33;;;;;;;10.10;9.10;;;22.50;65.40;;;;;;6001472;29;88072;-72
2023/03/08 09:54:38;;;;;;;12.60;11.02;;;22.50;65.40;;;;;;6011591;29;89454;-73
2023/03/08 09:57:47;;;;;;;13.05;11.68;;;22.50;65.40;;;;;;6012719;29;88005;-72
2023/03/08 10:00:51;;;;;;;15.50;13.65;;;22.50;65.50;;;;;;6000035;29;89065;-72
2023/03/08 10:04:07;;;;;;;16.70;14.63;;;22.50;65.40;;;;;;6012499;29;89361;-72
2023/03/08 10:07:24;;;;;;;18.38;16.48;;;22.50;65.40;;;;;;5999328;29;89064;-73
2023/03/08 10:10:39;;;;;;;20.15;17.95;;;22.50;65.40;;;;;;6001650;29;88347;-73
2023/03/08 10:13:44;;;;;;;21.70;18.80;;;22.50;65.40;;;;;;5992763;29;89224;-73
2023/03/08 10:16:53;;;;;;;21.30;19.05;;;22.50;65.40;;;;;;6005878;29;89108;-72
2023/03/08 10:19:59;;;;;;;22.25;19.75;;;22.50;65.50;;;;;;5993823;29;89943;-73
2023/03/08 10:23:10;;;;;;;25.42;22.55;;;22.50;65.50;;;;;;6016495;29;89235;-72
2023/03/08 10:26:13;;;;;;;27.95;24.35;;;22.60;65.50;;;;;;6015683;29;89161;-73
2023/03/08 10:29:15;;;;;;;27.40;24.45;;;22.50;65.50;;;;;;6011810;29;89332;-72
2023/03/08 10:32:19;;;;;;;28.02;24.73;;;22.50;65.40;;;;;;6008458;29;89171;-73
2023/03/08 10:35:32;;;;;;;28.35;25.00;;;22.50;65.40;;;;;;6011198;29;89155;-73
2023/03/08 10:38:36;;;;;;;28.95;25.83;;;22.50;65.40;;;;;;6010749;29;88844;-72
2023/03/08 10:41:43;;;;;;;30.60;27.13;;;22.60;65.50;;;;;;6008800;29;88785;-72
2023/03/08 10:44:53;;;;;;;30.05;26.75;;;22.60;65.50;;;;;;6012086;29;88008;-72
2023/03/08 10:47:59;;;;;;;34.03;28.85;;;22.60;65.60;;;;;;5996049;29;89060;-73
2023/03/08 10:51:04;;;;;;;34.20;29.98;;;22.60;65.50;;;;;;6015547;29;89771;-72
2023/03/08 10:54:12;;;;;;;33.00;29.42;;;22.60;66.50;;;;;;6015947;29;89008;-72
2023/03/08 10:57:20;;;;;;;33.35;29.42;;;22.60;65.60;;;;;;6015676;29;89571;-72
2023/03/08 11:00:34;;;;;;;33.33;29.70;;;22.60;65.60;;;;;;6005031;29;87771;-71
2023/03/08 11:03:38;;;;;;;33.50;29.90;;;22.60;65.60;;;;;;6015698;29;89506;-72
2023/03/08 11:06:40;;;;;;;36.42;31.05;;;22.60;65.60;;;;;;6002498;29;88309;-72
2023/03/08 11:09:42;;;;;;;35.42;30.52;;;22.60;65.60;;;;;;6013967;29;89406;-72
2023/03/08 11:12:45;;;;;;;33.38;29.73;;;22.60;65.60;;;;;;6015163;29;88408;-73
2023/03/08 11:15:51;;;;;;;34.72;31.02;;;22.60;65.60;;;;;;6014028;29;88332;-72
2023/03/08 11:19:05;;;;;;;34.75;30.95;;;22.60;65.50;;;;;;6013727;29;89414;-72
2023/03/08 11:22:18;;;;;;;34.92;31.13;;;22.60;65.60;;;;;;6013266;29;90166;-73
2023/03/08 11:25:33;;;;;;;35.03;30.70;;;22.60;65.60;;;;;;6014819;29;89548;-73
2023/03/08 11:28:46;;;;;;;34.75;30.73;;;22.70;65.70;;;;;;6011282;29;89064;-71
2023/03/08 11:32:00;;;;;;;34.50;30.42;;;22.60;65.50;;;;;;6012812;29;88080;-72
2023/03/08 11:35:14;;;;;;;35.95;30.67;;;22.60;65.60;;;;;;5995294;29;89068;-72
2023/03/08 11:38:22;;;;;;;35.22;31.40;;;22.60;65.60;;;;;;6003421;29;89182;-72
2023/03/08 11:41:31;;;;;;;34.97;31.15;;;22.60;65.70;;;;;;6014818;29;89108;-72
2023/03/08 11:44:46;;;;;;;34.03;30.40;;;22.60;65.70;;;;;;6015221;29;87981;-72
2023/03/08 11:48:20;;;;;;;34.60;30.90;;;22.60;65.70;;;;;;6014815;29;89214;-72
2023/03/08 11:51:31;;;;;;;34.47;30.67;;;22.60;65.70;;;;;;5964279;29;89090;-73
2023/03/08 11:54:46;;;;;;;36.33;32.35;;;22.60;65.70;;;;;;6013361;29;90391;-72
2023/03/08 11:57:54;;;;;;;36.97;32.28;;;22.70;65.70;;;;;;6014558;29;87594;-72
2023/03/08 12:01:01;;;;;;;35.42;30.92;;;22.60;65.70;;;;;;6000110;29;88669;-72
2023/03/08 12:04:07;;;;;;;35.60;31.70;;;22.60;65.70;;;;;;6005639;29;88243;-72
2023/03/08 12:07:18;;;;;;;34.33;30.75;;;22.60;65.70;;;;;;5999493;29;89127;-73
2023/03/08 12:10:23;;;;;;;35.50;31.20;;;22.60;65.70;;;;;;6004283;29;89111;-73
2023/03/08 12:13:32;;;;;;;35.25;31.55;;;22.60;65.70;;;;;;5992292;29;89149;-72
2023/03/08 12:16:40;;;;;;;35.17;31.02;;;22.60;65.70;;;;;;6005119;29;88617;-71
2023/03/08 12:19:45;;;;;;;34.90;31.13;;;22.60;65.70;;;;;;6013493;29;87967;-73
2023/03/08 12:22:54;;;;;;;35.47;31.67;;;22.60;65.70;;;;;;6002168;29;87985;-72
2023/03/08 12:26:04;;;;;;;34.78;31.08;;;22.60;65.70;;;;;;6014138;29;89991;-71
2023/03/08 12:29:13;;;;;;;34.55;30.98;;;22.60;65.70;;;;;;6008864;29;88716;-72
2023/03/08 12:32:18;;;;;;;35.13;31.40;;;22.60;65.70;;;;;;6008158;29;89204;-73
2023/03/08 12:35:29;;;;;;;34.47;30.70;;;22.60;65.70;;;;;;6008051;29;89813;-73
2023/03/08 12:38:36;;;;;;;33.78;30.27;;;22.60;65.70;;;;;;6013304;29;89080;-72
2023/03/08 12:41:38;;;;;;;34.50;30.83;;;22.60;65.70;;;;;;6013024;29;88978;-72
2023/03/08 12:44:40;;;;;;;34.22;30.63;;;22.60;65.70;;;;;;5998414;29;89396;-73
2023/03/08 12:47:43;;;;;;;33.20;29.70;;;22.60;65.70;;;;;;5995282;29;88326;-73
2023/03/08 12:50:56;;;;;;;33.65;30.10;;;22.60;65.60;;;;;;6003697;29;89035;-73
2023/03/08 12:54:04;;;;;;;33.45;29.98;;;22.70;65.70;;;;;;6012791;29;89331;-72
2023/03/08 12:57:19;;;;;;;32.85;29.42;;;22.60;65.60;;;;;;6000355;29;90380;-73
2023/03/08 13:00:27;;;;;;;32.70;29.30;;;22.60;65.60;;;;;;6011900;29;88952;-72
2023/03/08 13:03:37;;;;;;;33.72;30.20;;;22.60;65.60;;;;;;6013589;29;89218;-72
2023/03/08 13:07:24;;;;;;;33.20;29.73;;;22.60;65.50;;;;;;6005470;29;89029;-72
2023/03/08 13:10:32;;;;;;;32.35;28.92;;;22.60;65.70;;;;;;6000327;29;88809;-73
2023/03/08 13:13:42;;;;;;;31.45;28.15;;;22.60;65.70;;;;;;6012113;29;88382;-72
2023/03/08 13:16:44;;;;;;;31.70;28.27;;;22.60;65.60;;;;;;6012785;29;88008;-71
2023/03/08 13:19:48;;;;;;;31.73;28.35;;;22.70;65.70;;;;;;6012743;29;88362;-73
2023/03/08 13:23:07;;;;;;;31.65;28.42;;;22.60;65.60;;;;;;6011589;29;89077;-72
2023/03/08 13:26:35;;;;;;;30.88;27.67;;;22.60;65.60;;;;;;6003049;29;89200;-73
2023/03/08 13:29:37;;;;;;;30.83;27.63;;;22.60;65.60;;;;;;5993863;29;90063;-72
2023/03/08 13:32:39;;;;;;;31.50;27.98;;;22.70;65.70;;;;;;6012893;29;87061;-73
2023/03/08 13:35:41;;;;;;;30.88;27.63;;;22.70;65.70;;;;;;6012775;29;89502;-72
2023/03/08 13:38:44;;;;;;;32.28;28.98;;;22.60;65.50;;;;;;6014369;29;89046;-73
2023/03/08 13:41:48;;;;;;;31.17;27.98;;;22.70;65.60;;;;;;6011316;29;89441;-72
2023/03/08 13:44:51;;;;;;;31.70;28.50;;;22.60;65.50;;;;;;6012153;29;89412;-73
2023/03/08 13:47:56;;;;;;;31.27;28.13;;;22.60;65.60;;;;;;6006155;29;89175;-72
2023/03/08 13:50:59;;;;;;;30.38;27.20;;;22.60;65.60;;;;;;6015628;29;89122;-73
2023/03/08 13:54:01;;;;;;;31.67;28.40;;;22.60;66.60;;;;;;6016598;29;89038;-72
2023/03/08 13:57:15;;;;;;;30.38;27.30;;;22.60;65.60;;;;;;6012685;29;88080;-72
2023/03/08 14:00:26;;;;;;;30.80;27.48;;;22.60;65.60;;;;;;6006764;29;90452;-72
2023/03/08 14:03:30;;;;;;;30.58;27.58;;;22.70;65.70;;;;;;6006355;29;90977;-72
2023/03/08 14:06:35;;;;;;;30.92;27.73;;;22.60;65.60;;;;;;6002125;29;89410;-72
2023/03/08 14:09:38;;;;;;;30.85;27.85;;;22.60;65.50;;;;;;5997412;29;89083;-72
2023/03/08 14:12:44;;;;;;;30.48;27.38;;;22.70;65.60;;;;;;6011416;29;89716;-72
2023/03/08 14:15:51;;;;;;;30.45;27.38;;;22.70;65.60;;;;;;6015676;29;89027;-71
2023/03/08 14:18:54;;;;;;;29.90;26.90;;;22.70;65.60;;;;;;6004115;29;89489;-72
2023/03/08 14:21:58;;;;;;;30.35;27.30;;;22.70;65.70;;;;;;6001405;29;88560;-72
2023/03/08 14:25:02;;;;;;;30.63;27.45;;;22.60;65.50;;;;;;6008259;29;89296;-72
2023/03/08 14:28:32;;;;;;;30.67;27.65;;;22.60;65.60;;;;;;6015087;29;89102;-72
2023/03/08 14:31:34;;;;;;;30.45;27.45;;;22.60;65.50;;;;;;6007385;29;90349;-72
2023/03/08 14:34:38;;;;;;;30.20;27.10;;;22.60;65.50;;;;;;5994882;29;89086;-72
2023/03/08 14:37:44;;;;;;;30.02;26.98;;;22.60;65.50;;;;;;6004607;29;89796;-73
2023/03/08 14:40:49;;;;;;;30.52;27.52;;;22.60;65.50;;;;;;6014510;29;89520;-72
2023/03/08 14:43:52;;;;;;;30.00;27.05;;;22.70;65.60;;;;;;6015566;29;89120;-72
2023/03/08 14:46:58;;;;;;;30.13;27.10;;;22.60;65.50;;;;;;5997167;29;89272;-73
2023/03/08 14:50:04;;;;;;;29.08;26.17;;;22.70;65.50;;;;;;6011335;29;87998;-72
2023/03/08 14:53:25;;;;;;;29.23;26.23;;;22.70;65.50;;;;;;6015653;29;88531;-73
2023/03/08 14:56:29;;;;;;;29.02;26.13;;;22.70;65.60;;;;;;6016585;29;89522;-73
2023/03/08 14:59:32;;;;;;;29.25;26.35;;;22.70;65.50;;;;;;6012778;29;89113;-73
2023/03/08 15:02:35;;;;;;;29.55;26.65;;;22.70;65.50;;;;;;6013762;29;90157;-71
2023/03/08 15:05:38;;;;;;;29.20;26.23;;;22.70;65.60;;;;;;6002581;29;89179;-73
2023/03/08 15:08:40;;;;;;;27.38;24.73;;;22.70;65.60;;;;;;6004575;29;89136;-73
2023/03/08 15:11:43;;;;;;;28.42;25.52;;;22.70;65.60;;;;;;6004042;29;89054;-73
2023/03/08 15:14:46;;;;;;;27.45;24.75;;;22.60;65.50;;;;;;6015473;29;88083;-73
2023/03/08 15:17:48;;;;;;;28.73;25.92;;;22.60;65.50;;;;;;6003275;29;87864;-72
2023/03/08 15:20:52;;;;;;;27.80;25.13;;;22.70;65.60;;;;;;6004423;29;89577;-73
2023/03/08 15:23:54;;;;;;;27.00;24.40;;;22.70;65.50;;;;;;6001986;29;88410;-73
2023/03/08 15:26:57;;;;;;;27.42;24.75;;;22.70;65.50;;;;;;6006729;29;89069;-73
2023/03/08 15:30:00;;;;;;;27.83;25.13;;;22.70;65.50;;;;;;6014899;29;89092;-72
2023/03/08 15:33:02;;;;;;;27.27;24.55;;;22.70;65.60;;;;;;6015049;29;89918;-74
2023/03/08 15:36:07;;;;;;;28.25;25.55;;;22.60;66.50;;;;;;6004765;29;89119;-73
2023/03/08 15:39:11;;;;;;;27.02;24.40;;;22.70;65.60;;;;;;6003997;29;89274;-73
2023/03/08 15:42:13;;;;;;;27.30;24.70;;;22.70;65.60;;;;;;6003994;29;88009;-73
2023/03/08 15:45:17;;;;;;;27.70;25.00;;;22.70;65.60;;;;;;6003272;29;89062;-73
2023/03/08 15:48:19;;;;;;;27.50;24.85;;;22.70;65.60;;;;;;6005895;29;89371;-73
2023/03/08 15:51:24;;;;;;;27.98;25.17;;;22.70;65.60;;;;;;5993093;29;88428;-73